Terminal Aerodrome Forecast
Issued by NWS North Platte, NE

Home | Current Version | Previous Version | Text Only | Print | Product List | Glossary Off
Versions: 1 2 3 4 5 6 7 8 9 10 11 12 13 14 15 16 17

000
FTUS43 KLBF 211700
TAFVTN
TAF
KVTN 211737Z 2118/2218 26011G18KT P6SM SCT150
     FM220100 26008KT P6SM FEW150
     FM220500 VRB04KT P6SM SCT250
     FM221300 36009KT P6SM SCT150=

USA.gov is the U.S. government's official web portal to all federal, state and local government web resources and services.